sensor_id;sensor_type;location;lat;lon;timestamp;temperature;humidity
17208;DHT22;8720;48.488;9.202;2024-01-06T00:00:34;9.60;59.80
17208;DHT22;8720;48.488;9.202;2024-01-06T00:03:04;9.60;59.70
17208;DHT22;8720;48.488;9.202;2024-01-06T00:05:31;9.60;59.90
17208;DHT22;8720;48.488;9.202;2024-01-06T00:07:58;9.60;60.00
17208;DHT22;8720;48.488;9.202;2024-01-06T00:10:26;9.60;60.00
17208;DHT22;8720;48.488;9.202;2024-01-06T00:12:53;9.60;60.10
17208;DHT22;8720;48.488;9.202;2024-01-06T00:15:21;9.50;60.20
17208;DHT22;8720;48.488;9.202;2024-01-06T00:17:48;9.50;60.30
17208;DHT22;8720;48.488;9.202;2024-01-06T00:20:17;9.50;61.10
17208;DHT22;8720;48.488;9.202;2024-01-06T00:22:44;9.50;60.60
17208;DHT22;8720;48.488;9.202;2024-01-06T00:25:12;9.50;60.60
17208;DHT22;8720;48.488;9.202;2024-01-06T00:27:39;9.50;60.70
17208;DHT22;8720;48.488;9.202;2024-01-06T00:30:07;9.40;60.60
17208;DHT22;8720;48.488;9.202;2024-01-06T00:32:35;9.40;60.70
17208;DHT22;8720;48.488;9.202;2024-01-06T00:35:03;9.40;60.70
17208;DHT22;8720;48.488;9.202;2024-01-06T00:37:32;9.40;60.70
17208;DHT22;8720;48.488;9.202;2024-01-06T00:39:59;9.40;60.80
17208;DHT22;8720;48.488;9.202;2024-01-06T00:42:28;9.40;60.80
17208;DHT22;8720;48.488;9.202;2024-01-06T00:44:55;9.40;60.80
17208;DHT22;8720;48.488;9.202;2024-01-06T00:47:23;9.40;60.80
17208;DHT22;8720;48.488;9.202;2024-01-06T00:49:50;9.40;60.90
17208;DHT22;8720;48.488;9.202;2024-01-06T00:52:18;9.30;60.80
17208;DHT22;8720;48.488;9.202;2024-01-06T00:54:46;9.30;60.90
17208;DHT22;8720;48.488;9.202;2024-01-06T00:57:14;9.30;61.00
17208;DHT22;8720;48.488;9.202;2024-01-06T00:59:41;9.30;61.00
17208;DHT22;8720;48.488;9.202;2024-01-06T01:02:09;9.30;61.00
17208;DHT22;8720;48.488;9.202;2024-01-06T01:04:36;9.30;61.10
17208;DHT22;8720;48.488;9.202;2024-01-06T01:07:03;9.30;61.10
17208;DHT22;8720;48.488;9.202;2024-01-06T01:09:31;9.20;61.00
17208;DHT22;8720;48.488;9.202;2024-01-06T01:11:59;9.20;60.90
17208;DHT22;8720;48.488;9.202;2024-01-06T01:14:27;9.20;61.00
17208;DHT22;8720;48.488;9.202;2024-01-06T01:16:54;9.20;60.90
17208;DHT22;8720;48.488;9.202;2024-01-06T01:19:22;9.20;60.90
17208;DHT22;8720;48.488;9.202;2024-01-06T01:21:49;9.20;60.90
17208;DHT22;8720;48.488;9.202;2024-01-06T01:24:21;9.20;60.90
17208;DHT22;8720;48.488;9.202;2024-01-06T01:26:48;9.20;60.80
17208;DHT22;8720;48.488;9.202;2024-01-06T01:29:17;9.10;60.70
17208;DHT22;8720;48.488;9.202;2024-01-06T01:31:46;9.10;60.50
17208;DHT22;8720;48.488;9.202;2024-01-06T01:34:13;9.10;60.40
17208;DHT22;8720;48.488;9.202;2024-01-06T01:36:41;9.10;60.30
17208;DHT22;8720;48.488;9.202;2024-01-06T01:39:08;9.10;60.70
17208;DHT22;8720;48.488;9.202;2024-01-06T01:41:36;9.00;59.80
17208;DHT22;8720;48.488;9.202;2024-01-06T01:44:04;9.00;59.90
17208;DHT22;8720;48.488;9.202;2024-01-06T01:46:32;9.00;59.80
17208;DHT22;8720;48.488;9.202;2024-01-06T01:49:01;9.00;59.80
17208;DHT22;8720;48.488;9.202;2024-01-06T01:51:30;9.00;59.70
17208;DHT22;8720;48.488;9.202;2024-01-06T01:54:01;9.00;59.60
17208;DHT22;8720;48.488;9.202;2024-01-06T01:56:31;9.00;59.60
17208;DHT22;8720;48.488;9.202;2024-01-06T01:59:01;9.00;59.60
17208;DHT22;8720;48.488;9.202;2024-01-06T02:01:34;8.90;59.40
17208;DHT22;8720;48.488;9.202;2024-01-06T02:04:01;8.90;59.30
17208;DHT22;8720;48.488;9.202;2024-01-06T02:06:29;8.90;59.40
17208;DHT22;8720;48.488;9.202;2024-01-06T02:08:56;8.80;59.30
17208;DHT22;8720;48.488;9.202;2024-01-06T02:11:24;8.80;59.40
17208;DHT22;8720;48.488;9.202;2024-01-06T02:13:51;8.80;59.40
17208;DHT22;8720;48.488;9.202;2024-01-06T02:16:19;8.80;59.40
17208;DHT22;8720;48.488;9.202;2024-01-06T02:18:48;8.70;59.40
17208;DHT22;8720;48.488;9.202;2024-01-06T02:21:17;8.70;59.40
17208;DHT22;8720;48.488;9.202;2024-01-06T02:23:49;8.70;59.40
17208;DHT22;8720;48.488;9.202;2024-01-06T02:26:17;8.70;59.50
17208;DHT22;8720;48.488;9.202;2024-01-06T02:28:45;8.70;59.70
17208;DHT22;8720;48.488;9.202;2024-01-06T02:31:13;8.60;59.40
17208;DHT22;8720;48.488;9.202;2024-01-06T02:33:41;8.60;59.40
17208;DHT22;8720;48.488;9.202;2024-01-06T02:36:08;8.70;59.60
17208;DHT22;8720;48.488;9.202;2024-01-06T02:38:35;8.60;59.50
17208;DHT22;8720;48.488;9.202;2024-01-06T02:41:04;8.60;59.40
17208;DHT22;8720;48.488;9.202;2024-01-06T02:43:32;8.60;59.40
17208;DHT22;8720;48.488;9.202;2024-01-06T02:45:59;8.60;59.40
17208;DHT22;8720;48.488;9.202;2024-01-06T02:48:26;8.60;59.40
17208;DHT22;8720;48.488;9.202;2024-01-06T02:50:56;8.60;59.30
17208;DHT22;8720;48.488;9.202;2024-01-06T02:53:23;8.60;59.30
17208;DHT22;8720;48.488;9.202;2024-01-06T02:55:50;8.60;59.30
17208;DHT22;8720;48.488;9.202;2024-01-06T02:58:19;8.60;59.20
17208;DHT22;8720;48.488;9.202;2024-01-06T03:03:28;8.70;59.40
17208;DHT22;8720;48.488;9.202;2024-01-06T03:05:55;8.60;59.40
17208;DHT22;8720;48.488;9.202;2024-01-06T03:08:23;8.60;59.40
17208;DHT22;8720;48.488;9.202;2024-01-06T03:10:50;8.60;59.30
17208;DHT22;8720;48.488;9.202;2024-01-06T03:13:19;8.60;59.30
17208;DHT22;8720;48.488;9.202;2024-01-06T03:15:46;8.60;59.30
17208;DHT22;8720;48.488;9.202;2024-01-06T03:18:13;8.60;59.30
17208;DHT22;8720;48.488;9.202;2024-01-06T03:20:41;8.60;59.20
17208;DHT22;8720;48.488;9.202;2024-01-06T03:23:08;8.60;59.20
17208;DHT22;8720;48.488;9.202;2024-01-06T03:25:35;8.60;59.30
17208;DHT22;8720;48.488;9.202;2024-01-06T03:28:03;8.60;59.20
17208;DHT22;8720;48.488;9.202;2024-01-06T03:30:32;8.60;59.10
17208;DHT22;8720;48.488;9.202;2024-01-06T03:32:59;8.60;59.10
17208;DHT22;8720;48.488;9.202;2024-01-06T03:35:27;8.60;59.20
17208;DHT22;8720;48.488;9.202;2024-01-06T03:37:54;8.60;59.20
17208;DHT22;8720;48.488;9.202;2024-01-06T03:40:21;8.60;59.20
17208;DHT22;8720;48.488;9.202;2024-01-06T03:42:49;8.60;59.20
17208;DHT22;8720;48.488;9.202;2024-01-06T03:45:16;8.50;59.00
17208;DHT22;8720;48.488;9.202;2024-01-06T03:47:45;8.50;58.90
17208;DHT22;8720;48.488;9.202;2024-01-06T03:50:12;8.60;59.00
17208;DHT22;8720;48.488;9.202;2024-01-06T03:52:39;8.50;58.90
17208;DHT22;8720;48.488;9.202;2024-01-06T03:55:07;8.50;58.90
17208;DHT22;8720;48.488;9.202;2024-01-06T03:57:35;8.50;58.90
17208;DHT22;8720;48.488;9.202;2024-01-06T04:00:03;8.50;58.90
17208;DHT22;8720;48.488;9.202;2024-01-06T04:02:31;8.50;58.90
17208;DHT22;8720;48.488;9.202;2024-01-06T04:05:00;8.50;58.90
17208;DHT22;8720;48.488;9.202;2024-01-06T04:07:27;8.50;59.00
17208;DHT22;8720;48.488;9.202;2024-01-06T04:09:54;8.50;58.90
17208;DHT22;8720;48.488;9.202;2024-01-06T04:12:21;8.50;58.80
17208;DHT22;8720;48.488;9.202;2024-01-06T04:14:49;8.50;58.80
17208;DHT22;8720;48.488;9.202;2024-01-06T04:17:16;8.50;58.90
17208;DHT22;8720;48.488;9.202;2024-01-06T04:19:43;8.50;58.90
17208;DHT22;8720;48.488;9.202;2024-01-06T04:22:12;8.40;58.80
17208;DHT22;8720;48.488;9.202;2024-01-06T04:24:39;8.40;58.80
17208;DHT22;8720;48.488;9.202;2024-01-06T04:27:07;8.40;58.70
17208;DHT22;8720;48.488;9.202;2024-01-06T04:29:35;8.50;58.70
17208;DHT22;8720;48.488;9.202;2024-01-06T04:32:03;8.50;58.60
17208;DHT22;8720;48.488;9.202;2024-01-06T04:34:30;8.40;58.50
17208;DHT22;8720;48.488;9.202;2024-01-06T04:36:57;8.40;58.50
17208;DHT22;8720;48.488;9.202;2024-01-06T04:39:26;8.40;58.60
17208;DHT22;8720;48.488;9.202;2024-01-06T04:41:53;8.40;58.70
17208;DHT22;8720;48.488;9.202;2024-01-06T04:44:21;8.40;58.70
17208;DHT22;8720;48.488;9.202;2024-01-06T04:46:48;8.30;58.60
17208;DHT22;8720;48.488;9.202;2024-01-06T04:49:15;8.30;58.60
17208;DHT22;8720;48.488;9.202;2024-01-06T04:51:43;8.30;58.50
17208;DHT22;8720;48.488;9.202;2024-01-06T04:54:10;8.30;58.50
17208;DHT22;8720;48.488;9.202;2024-01-06T04:56:39;8.30;58.50
17208;DHT22;8720;48.488;9.202;2024-01-06T04:59:06;8.20;58.50
17208;DHT22;8720;48.488;9.202;2024-01-06T05:01:33;8.20;58.50
17208;DHT22;8720;48.488;9.202;2024-01-06T05:04:01;8.20;58.50
17208;DHT22;8720;48.488;9.202;2024-01-06T05:06:28;8.20;58.50
17208;DHT22;8720;48.488;9.202;2024-01-06T05:08:56;8.20;58.60
17208;DHT22;8720;48.488;9.202;2024-01-06T05:11:23;8.20;58.60
17208;DHT22;8720;48.488;9.202;2024-01-06T05:13:51;8.20;58.50
17208;DHT22;8720;48.488;9.202;2024-01-06T05:16:19;8.20;58.50
17208;DHT22;8720;48.488;9.202;2024-01-06T05:18:46;8.10;58.40
17208;DHT22;8720;48.488;9.202;2024-01-06T05:21:13;8.10;58.30
17208;DHT22;8720;48.488;9.202;2024-01-06T05:23:41;8.10;58.20
17208;DHT22;8720;48.488;9.202;2024-01-06T05:26:08;8.10;58.30
17208;DHT22;8720;48.488;9.202;2024-01-06T05:28:37;8.10;58.40
17208;DHT22;8720;48.488;9.202;2024-01-06T05:31:06;8.10;58.40
17208;DHT22;8720;48.488;9.202;2024-01-06T05:33:33;8.10;58.30
17208;DHT22;8720;48.488;9.202;2024-01-06T05:36:00;8.10;58.30
17208;DHT22;8720;48.488;9.202;2024-01-06T05:38:27;8.10;58.50
17208;DHT22;8720;48.488;9.202;2024-01-06T05:40:55;8.10;58.60
17208;DHT22;8720;48.488;9.202;2024-01-06T05:43:22;8.10;58.60
17208;DHT22;8720;48.488;9.202;2024-01-06T05:45:50;8.20;58.60
17208;DHT22;8720;48.488;9.202;2024-01-06T05:48:18;8.20;58.50
17208;DHT22;8720;48.488;9.202;2024-01-06T05:50:46;8.10;58.40
17208;DHT22;8720;48.488;9.202;2024-01-06T05:53:13;8.10;58.30
17208;DHT22;8720;48.488;9.202;2024-01-06T05:55:44;8.10;58.30
17208;DHT22;8720;48.488;9.202;2024-01-06T05:58:11;8.20;58.30
17208;DHT22;8720;48.488;9.202;2024-01-06T06:00:39;8.10;58.20
17208;DHT22;8720;48.488;9.202;2024-01-06T06:03:06;8.20;58.40
17208;DHT22;8720;48.488;9.202;2024-01-06T06:05:35;8.20;58.40
17208;DHT22;8720;48.488;9.202;2024-01-06T06:08:03;8.20;58.30
17208;DHT22;8720;48.488;9.202;2024-01-06T06:10:31;8.20;58.30
17208;DHT22;8720;48.488;9.202;2024-01-06T06:13:07;8.20;58.20
17208;DHT22;8720;48.488;9.202;2024-01-06T06:15:36;8.20;58.10
17208;DHT22;8720;48.488;9.202;2024-01-06T06:18:04;8.20;58.10
17208;DHT22;8720;48.488;9.202;2024-01-06T06:20:32;8.20;58.00
17208;DHT22;8720;48.488;9.202;2024-01-06T06:23:01;8.20;57.90
17208;DHT22;8720;48.488;9.202;2024-01-06T06:25:28;8.20;57.80
17208;DHT22;8720;48.488;9.202;2024-01-06T06:27:55;8.20;57.80
17208;DHT22;8720;48.488;9.202;2024-01-06T06:30:22;8.20;57.70
17208;DHT22;8720;48.488;9.202;2024-01-06T06:32:50;8.20;57.60
17208;DHT22;8720;48.488;9.202;2024-01-06T06:35:17;8.20;57.50
17208;DHT22;8720;48.488;9.202;2024-01-06T06:37:44;8.20;57.40
17208;DHT22;8720;48.488;9.202;2024-01-06T06:40:13;8.20;57.30
17208;DHT22;8720;48.488;9.202;2024-01-06T06:42:43;8.20;57.10
17208;DHT22;8720;48.488;9.202;2024-01-06T06:45:10;8.20;57.20
17208;DHT22;8720;48.488;9.202;2024-01-06T06:47:38;8.20;57.30
17208;DHT22;8720;48.488;9.202;2024-01-06T06:50:06;8.20;57.30
17208;DHT22;8720;48.488;9.202;2024-01-06T06:52:34;8.20;57.10
17208;DHT22;8720;48.488;9.202;2024-01-06T06:55:02;8.20;57.10
17208;DHT22;8720;48.488;9.202;2024-01-06T06:57:31;8.10;57.20
17208;DHT22;8720;48.488;9.202;2024-01-06T06:59:58;8.10;57.10
17208;DHT22;8720;48.488;9.202;2024-01-06T07:02:25;8.10;57.00
17208;DHT22;8720;48.488;9.202;2024-01-06T07:04:53;8.10;56.90
17208;DHT22;8720;48.488;9.202;2024-01-06T07:07:20;8.10;56.90
17208;DHT22;8720;48.488;9.202;2024-01-06T07:09:48;8.10;56.90
17208;DHT22;8720;48.488;9.202;2024-01-06T07:12:15;8.10;56.90
17208;DHT22;8720;48.488;9.202;2024-01-06T07:14:43;8.10;57.10
17208;DHT22;8720;48.488;9.202;2024-01-06T07:17:11;8.10;57.10
17208;DHT22;8720;48.488;9.202;2024-01-06T07:19:38;8.10;57.60
17208;DHT22;8720;48.488;9.202;2024-01-06T07:22:05;8.10;57.00
17208;DHT22;8720;48.488;9.202;2024-01-06T07:24:33;8.10;57.00
17208;DHT22;8720;48.488;9.202;2024-01-06T07:27:02;8.20;57.00
17208;DHT22;8720;48.488;9.202;2024-01-06T07:29:30;8.20;57.00
17208;DHT22;8720;48.488;9.202;2024-01-06T07:31:58;8.20;57.00
17208;DHT22;8720;48.488;9.202;2024-01-06T07:34:25;8.20;57.10
17208;DHT22;8720;48.488;9.202;2024-01-06T07:36:53;8.20;57.10
17208;DHT22;8720;48.488;9.202;2024-01-06T07:39:20;8.20;57.00
17208;DHT22;8720;48.488;9.202;2024-01-06T07:41:49;8.20;57.10
17208;DHT22;8720;48.488;9.202;2024-01-06T07:44:17;8.20;57.10
17208;DHT22;8720;48.488;9.202;2024-01-06T07:46:48;8.20;57.10
17208;DHT22;8720;48.488;9.202;2024-01-06T07:49:17;8.20;57.10
17208;DHT22;8720;48.488;9.202;2024-01-06T07:51:44;8.20;57.00
17208;DHT22;8720;48.488;9.202;2024-01-06T07:54:11;8.20;57.00
17208;DHT22;8720;48.488;9.202;2024-01-06T07:56:38;8.20;57.10
17208;DHT22;8720;48.488;9.202;2024-01-06T07:59:06;8.20;57.10
17208;DHT22;8720;48.488;9.202;2024-01-06T08:01:33;8.20;57.10
17208;DHT22;8720;48.488;9.202;2024-01-06T08:04:00;8.20;57.10
17208;DHT22;8720;48.488;9.202;2024-01-06T08:06:32;8.20;57.10
17208;DHT22;8720;48.488;9.202;2024-01-06T08:09:00;8.30;57.70
17208;DHT22;8720;48.488;9.202;2024-01-06T08:11:27;8.30;57.10
17208;DHT22;8720;48.488;9.202;2024-01-06T08:13:55;8.30;57.10
17208;DHT22;8720;48.488;9.202;2024-01-06T08:16:22;8.30;57.00
17208;DHT22;8720;48.488;9.202;2024-01-06T08:18:49;8.40;57.10
17208;DHT22;8720;48.488;9.202;2024-01-06T08:21:16;8.40;56.90
17208;DHT22;8720;48.488;9.202;2024-01-06T08:23:46;8.50;57.00
17208;DHT22;8720;48.488;9.202;2024-01-06T08:26:13;8.50;57.10
17208;DHT22;8720;48.488;9.202;2024-01-06T08:28:40;8.50;57.00
17208;DHT22;8720;48.488;9.202;2024-01-06T08:31:07;8.60;56.90
17208;DHT22;8720;48.488;9.202;2024-01-06T08:33:35;8.60;56.80
17208;DHT22;8720;48.488;9.202;2024-01-06T08:36:02;8.60;56.80
17208;DHT22;8720;48.488;9.202;2024-01-06T08:38:30;8.60;56.80
17208;DHT22;8720;48.488;9.202;2024-01-06T08:40:59;8.60;56.70
17208;DHT22;8720;48.488;9.202;2024-01-06T08:43:26;8.70;56.70
17208;DHT22;8720;48.488;9.202;2024-01-06T08:45:54;8.70;56.40
17208;DHT22;8720;48.488;9.202;2024-01-06T08:48:21;8.70;56.30
17208;DHT22;8720;48.488;9.202;2024-01-06T08:50:48;8.80;56.40
17208;DHT22;8720;48.488;9.202;2024-01-06T08:53:16;8.80;56.40
17208;DHT22;8720;48.488;9.202;2024-01-06T08:55:44;8.80;56.50
17208;DHT22;8720;48.488;9.202;2024-01-06T08:58:13;8.90;56.40
17208;DHT22;8720;48.488;9.202;2024-01-06T09:00:40;8.90;56.10
17208;DHT22;8720;48.488;9.202;2024-01-06T09:03:07;8.90;56.20
17208;DHT22;8720;48.488;9.202;2024-01-06T09:05:35;9.00;56.10
17208;DHT22;8720;48.488;9.202;2024-01-06T09:08:03;9.00;56.00
17208;DHT22;8720;48.488;9.202;2024-01-06T09:10:31;9.00;55.80
17208;DHT22;8720;48.488;9.202;2024-01-06T09:12:58;9.10;55.90
17208;DHT22;8720;48.488;9.202;2024-01-06T09:15:28;9.10;55.80
17208;DHT22;8720;48.488;9.202;2024-01-06T09:17:56;9.10;55.60
17208;DHT22;8720;48.488;9.202;2024-01-06T09:20:23;9.10;55.60
17208;DHT22;8720;48.488;9.202;2024-01-06T09:22:50;9.20;56.20
17208;DHT22;8720;48.488;9.202;2024-01-06T09:25:17;9.20;55.30
17208;DHT22;8720;48.488;9.202;2024-01-06T09:27:45;9.20;55.30
17208;DHT22;8720;48.488;9.202;2024-01-06T09:30:12;9.30;55.30
17208;DHT22;8720;48.488;9.202;2024-01-06T09:32:41;9.30;55.40
17208;DHT22;8720;48.488;9.202;2024-01-06T09:35:08;9.30;55.20
17208;DHT22;8720;48.488;9.202;2024-01-06T09:37:36;9.40;55.20
17208;DHT22;8720;48.488;9.202;2024-01-06T09:40:04;9.40;55.10
17208;DHT22;8720;48.488;9.202;2024-01-06T09:42:32;9.50;55.10
17208;DHT22;8720;48.488;9.202;2024-01-06T09:45:00;9.50;55.10
17208;DHT22;8720;48.488;9.202;2024-01-06T09:47:28;9.50;54.80
17208;DHT22;8720;48.488;9.202;2024-01-06T09:50:03;9.50;54.70
17208;DHT22;8720;48.488;9.202;2024-01-06T09:52:39;9.60;54.70
17208;DHT22;8720;48.488;9.202;2024-01-06T09:55:10;9.60;54.40
17208;DHT22;8720;48.488;9.202;2024-01-06T09:57:38;9.60;54.30
17208;DHT22;8720;48.488;9.202;2024-01-06T10:00:07;9.70;54.40
17208;DHT22;8720;48.488;9.202;2024-01-06T10:02:38;9.70;54.20
17208;DHT22;8720;48.488;9.202;2024-01-06T10:05:08;9.70;54.20
17208;DHT22;8720;48.488;9.202;2024-01-06T10:07:37;9.70;53.60
17208;DHT22;8720;48.488;9.202;2024-01-06T10:10:07;9.70;53.70
17208;DHT22;8720;48.488;9.202;2024-01-06T10:12:37;9.80;53.60
17208;DHT22;8720;48.488;9.202;2024-01-06T10:15:07;9.80;53.60
17208;DHT22;8720;48.488;9.202;2024-01-06T10:17:36;9.80;53.60
17208;DHT22;8720;48.488;9.202;2024-01-06T10:20:09;9.80;53.40
17208;DHT22;8720;48.488;9.202;2024-01-06T10:22:38;9.80;53.20
17208;DHT22;8720;48.488;9.202;2024-01-06T10:25:11;9.80;53.20
17208;DHT22;8720;48.488;9.202;2024-01-06T10:27:40;9.80;53.00
17208;DHT22;8720;48.488;9.202;2024-01-06T10:30:09;9.80;53.10
17208;DHT22;8720;48.488;9.202;2024-01-06T10:32:39;9.80;53.20
17208;DHT22;8720;48.488;9.202;2024-01-06T10:35:08;9.80;52.90
17208;DHT22;8720;48.488;9.202;2024-01-06T10:37:37;9.80;52.70
17208;DHT22;8720;48.488;9.202;2024-01-06T10:40:09;9.80;52.60
17208;DHT22;8720;48.488;9.202;2024-01-06T10:42:39;9.80;52.70
17208;DHT22;8720;48.488;9.202;2024-01-06T10:45:09;9.80;52.70
17208;DHT22;8720;48.488;9.202;2024-01-06T10:47:38;9.80;52.70
17208;DHT22;8720;48.488;9.202;2024-01-06T10:50:09;9.80;52.70
17208;DHT22;8720;48.488;9.202;2024-01-06T10:52:38;9.80;53.20
17208;DHT22;8720;48.488;9.202;2024-01-06T10:55:06;9.90;52.50
17208;DHT22;8720;48.488;9.202;2024-01-06T10:57:34;9.90;52.40
17208;DHT22;8720;48.488;9.202;2024-01-06T11:00:03;9.90;52.20
17208;DHT22;8720;48.488;9.202;2024-01-06T11:02:31;9.90;52.20
17208;DHT22;8720;48.488;9.202;2024-01-06T11:04:59;9.90;52.10
17208;DHT22;8720;48.488;9.202;2024-01-06T11:07:28;9.90;52.00
17208;DHT22;8720;48.488;9.202;2024-01-06T11:09:58;9.90;52.00
17208;DHT22;8720;48.488;9.202;2024-01-06T11:12:31;9.90;51.90
17208;DHT22;8720;48.488;9.202;2024-01-06T11:14:59;9.90;51.90
17208;DHT22;8720;48.488;9.202;2024-01-06T11:17:49;9.90;52.50
17208;DHT22;8720;48.488;9.202;2024-01-06T11:20:19;9.90;51.30
17208;DHT22;8720;48.488;9.202;2024-01-06T11:22:52;9.90;51.80
17208;DHT22;8720;48.488;9.202;2024-01-06T11:25:21;9.90;52.30
17208;DHT22;8720;48.488;9.202;2024-01-06T11:27:49;10.00;51.00
17208;DHT22;8720;48.488;9.202;2024-01-06T11:30:24;10.00;50.90
17208;DHT22;8720;48.488;9.202;2024-01-06T11:32:53;10.00;50.90
17208;DHT22;8720;48.488;9.202;2024-01-06T11:35:26;10.00;50.80
17208;DHT22;8720;48.488;9.202;2024-01-06T11:37:57;10.00;50.50
17208;DHT22;8720;48.488;9.202;2024-01-06T11:40:33;10.00;50.40
17208;DHT22;8720;48.488;9.202;2024-01-06T11:43:07;10.00;50.40
17208;DHT22;8720;48.488;9.202;2024-01-06T11:45:37;10.00;50.60
17208;DHT22;8720;48.488;9.202;2024-01-06T11:48:08;10.00;50.70
17208;DHT22;8720;48.488;9.202;2024-01-06T11:50:39;10.00;50.60
17208;DHT22;8720;48.488;9.202;2024-01-06T11:53:09;10.00;50.60
17208;DHT22;8720;48.488;9.202;2024-01-06T11:55:38;10.00;50.70
17208;DHT22;8720;48.488;9.202;2024-01-06T11:58:05;10.00;50.60
17208;DHT22;8720;48.488;9.202;2024-01-06T12:00:33;10.10;50.80
17208;DHT22;8720;48.488;9.202;2024-01-06T12:03:03;10.10;50.80
17208;DHT22;8720;48.488;9.202;2024-01-06T12:05:31;10.10;50.60
17208;DHT22;8720;48.488;9.202;2024-01-06T12:08:00;10.10;50.60
17208;DHT22;8720;48.488;9.202;2024-01-06T12:10:32;10.20;50.60
17208;DHT22;8720;48.488;9.202;2024-01-06T12:13:01;10.20;50.40
17208;DHT22;8720;48.488;9.202;2024-01-06T12:15:31;10.20;50.30
17208;DHT22;8720;48.488;9.202;2024-01-06T12:18:01;10.20;50.40
17208;DHT22;8720;48.488;9.202;2024-01-06T12:20:31;10.20;50.50
17208;DHT22;8720;48.488;9.202;2024-01-06T12:22:59;10.20;50.40
17208;DHT22;8720;48.488;9.202;2024-01-06T12:25:27;10.20;50.30
17208;DHT22;8720;48.488;9.202;2024-01-06T12:28:01;10.20;50.20
17208;DHT22;8720;48.488;9.202;2024-01-06T12:30:29;10.20;50.10
17208;DHT22;8720;48.488;9.202;2024-01-06T12:32:57;10.10;50.10
17208;DHT22;8720;48.488;9.202;2024-01-06T12:35:25;10.10;50.20
17208;DHT22;8720;48.488;9.202;2024-01-06T12:37:53;10.10;50.10
17208;DHT22;8720;48.488;9.202;2024-01-06T12:40:22;10.10;50.20
17208;DHT22;8720;48.488;9.202;2024-01-06T12:42:49;10.10;50.20
17208;DHT22;8720;48.488;9.202;2024-01-06T12:45:18;10.10;50.20
17208;DHT22;8720;48.488;9.202;2024-01-06T12:47:46;10.00;50.20
17208;DHT22;8720;48.488;9.202;2024-01-06T12:50:14;10.00;50.40
17208;DHT22;8720;48.488;9.202;2024-01-06T12:52:42;10.00;50.40
17208;DHT22;8720;48.488;9.202;2024-01-06T12:55:12;10.00;50.30
17208;DHT22;8720;48.488;9.202;2024-01-06T12:57:40;10.00;50.10
17208;DHT22;8720;48.488;9.202;2024-01-06T13:00:10;10.00;50.10
17208;DHT22;8720;48.488;9.202;2024-01-06T13:02:40;10.00;50.10
17208;DHT22;8720;48.488;9.202;2024-01-06T13:05:08;10.00;50.20
17208;DHT22;8720;48.488;9.202;2024-01-06T13:07:36;10.00;50.30
17208;DHT22;8720;48.488;9.202;2024-01-06T13:10:04;10.00;50.30
17208;DHT22;8720;48.488;9.202;2024-01-06T13:12:32;10.00;50.20
17208;DHT22;8720;48.488;9.202;2024-01-06T13:15:00;10.00;50.30
17208;DHT22;8720;48.488;9.202;2024-01-06T13:17:27;10.00;50.20
17208;DHT22;8720;48.488;9.202;2024-01-06T13:19:56;10.00;50.30
17208;DHT22;8720;48.488;9.202;2024-01-06T13:22:24;10.00;50.20
17208;DHT22;8720;48.488;9.202;2024-01-06T13:24:52;10.00;50.20
17208;DHT22;8720;48.488;9.202;2024-01-06T13:27:19;10.00;50.20
17208;DHT22;8720;48.488;9.202;2024-01-06T13:29:47;10.00;50.20
17208;DHT22;8720;48.488;9.202;2024-01-06T13:32:14;10.00;50.10
17208;DHT22;8720;48.488;9.202;2024-01-06T13:34:44;9.90;51.00
17208;DHT22;8720;48.488;9.202;2024-01-06T13:37:14;9.90;51.00
17208;DHT22;8720;48.488;9.202;2024-01-06T13:39:42;9.90;50.90
17208;DHT22;8720;48.488;9.202;2024-01-06T13:42:09;9.90;51.00
17208;DHT22;8720;48.488;9.202;2024-01-06T13:44:37;9.90;51.50
17208;DHT22;8720;48.488;9.202;2024-01-06T13:47:05;9.90;50.90
17208;DHT22;8720;48.488;9.202;2024-01-06T13:49:32;9.90;50.90
17208;DHT22;8720;48.488;9.202;2024-01-06T13:52:00;9.80;50.90
17208;DHT22;8720;48.488;9.202;2024-01-06T13:54:29;9.80;51.10
17208;DHT22;8720;48.488;9.202;2024-01-06T13:56:57;9.80;51.00
17208;DHT22;8720;48.488;9.202;2024-01-06T13:59:25;9.80;51.10
17208;DHT22;8720;48.488;9.202;2024-01-06T14:01:53;9.80;51.10
17208;DHT22;8720;48.488;9.202;2024-01-06T14:04:21;9.80;51.00
17208;DHT22;8720;48.488;9.202;2024-01-06T14:06:49;9.80;51.20
17208;DHT22;8720;48.488;9.202;2024-01-06T14:09:22;9.80;51.90
17208;DHT22;8720;48.488;9.202;2024-01-06T14:11:51;9.80;51.30
17208;DHT22;8720;48.488;9.202;2024-01-06T14:14:20;9.80;51.30
17208;DHT22;8720;48.488;9.202;2024-01-06T14:16:48;9.80;51.30
17208;DHT22;8720;48.488;9.202;2024-01-06T14:19:17;9.70;51.30
17208;DHT22;8720;48.488;9.202;2024-01-06T14:21:45;9.70;51.30
17208;DHT22;8720;48.488;9.202;2024-01-06T14:24:13;9.70;51.30
17208;DHT22;8720;48.488;9.202;2024-01-06T14:26:41;9.70;51.30
17208;DHT22;8720;48.488;9.202;2024-01-06T14:29:11;9.70;51.30
17208;DHT22;8720;48.488;9.202;2024-01-06T14:31:42;9.70;51.30
17208;DHT22;8720;48.488;9.202;2024-01-06T14:34:10;9.70;51.30
17208;DHT22;8720;48.488;9.202;2024-01-06T14:36:38;9.70;51.30
17208;DHT22;8720;48.488;9.202;2024-01-06T14:39:06;9.70;51.40
17208;DHT22;8720;48.488;9.202;2024-01-06T14:41:34;9.60;51.30
17208;DHT22;8720;48.488;9.202;2024-01-06T14:44:02;9.60;51.30
17208;DHT22;8720;48.488;9.202;2024-01-06T14:46:32;9.60;51.20
17208;DHT22;8720;48.488;9.202;2024-01-06T14:49:01;9.60;51.20
17208;DHT22;8720;48.488;9.202;2024-01-06T14:51:29;9.50;51.20
17208;DHT22;8720;48.488;9.202;2024-01-06T14:53:56;9.50;51.20
17208;DHT22;8720;48.488;9.202;2024-01-06T14:56:24;9.50;51.30
17208;DHT22;8720;48.488;9.202;2024-01-06T14:58:52;9.50;51.30
17208;DHT22;8720;48.488;9.202;2024-01-06T15:01:20;9.50;51.30
17208;DHT22;8720;48.488;9.202;2024-01-06T15:03:48;9.40;51.30
17208;DHT22;8720;48.488;9.202;2024-01-06T15:06:16;9.40;51.40
17208;DHT22;8720;48.488;9.202;2024-01-06T15:08:43;9.40;51.40
17208;DHT22;8720;48.488;9.202;2024-01-06T15:11:11;9.40;51.40
17208;DHT22;8720;48.488;9.202;2024-01-06T15:13:38;9.30;51.30
17208;DHT22;8720;48.488;9.202;2024-01-06T15:16:06;9.30;51.30
17208;DHT22;8720;48.488;9.202;2024-01-06T15:18:34;9.30;51.30
17208;DHT22;8720;48.488;9.202;2024-01-06T15:21:03;9.20;51.40
17208;DHT22;8720;48.488;9.202;2024-01-06T15:23:31;9.20;51.50
17208;DHT22;8720;48.488;9.202;2024-01-06T15:25:58;9.10;51.50
17208;DHT22;8720;48.488;9.202;2024-01-06T15:28:29;9.10;51.60
17208;DHT22;8720;48.488;9.202;2024-01-06T15:30:56;9.10;51.80
17208;DHT22;8720;48.488;9.202;2024-01-06T15:33:25;9.00;51.80
17208;DHT22;8720;48.488;9.202;2024-01-06T15:35:53;9.00;51.90
17208;DHT22;8720;48.488;9.202;2024-01-06T15:38:22;9.00;52.10
17208;DHT22;8720;48.488;9.202;2024-01-06T15:40:49;8.90;52.20
17208;DHT22;8720;48.488;9.202;2024-01-06T15:43:16;8.90;52.20
17208;DHT22;8720;48.488;9.202;2024-01-06T15:45:44;8.90;52.30
17208;DHT22;8720;48.488;9.202;2024-01-06T15:48:11;8.90;52.30
17208;DHT22;8720;48.488;9.202;2024-01-06T15:50:39;8.80;52.30
17208;DHT22;8720;48.488;9.202;2024-01-06T15:53:06;8.80;52.40
17208;DHT22;8720;48.488;9.202;2024-01-06T15:55:35;8.80;52.50
17208;DHT22;8720;48.488;9.202;2024-01-06T15:58:04;8.70;52.80
17208;DHT22;8720;48.488;9.202;2024-01-06T16:00:31;8.70;52.80
17208;DHT22;8720;48.488;9.202;2024-01-06T16:02:59;8.70;52.80
17208;DHT22;8720;48.488;9.202;2024-01-06T16:05:26;8.60;52.80
17208;DHT22;8720;48.488;9.202;2024-01-06T16:07:54;8.60;52.80